createdAt,value
2018-05-15T00:00:13.808Z,15.27
2018-05-15T00:02:39.665Z,15.25
2018-05-15T00:05:05.553Z,15.26
2018-05-15T00:07:31.413Z,15.14
2018-05-15T00:09:57.296Z,15.23
2018-05-15T00:12:23.185Z,15.22
2018-05-15T00:14:49.029Z,15.28
2018-05-15T00:17:14.885Z,15.21
2018-05-15T00:19:40.717Z,15.15
2018-05-15T00:22:06.612Z,15.17
2018-05-15T00:24:32.458Z,15.17
2018-05-15T00:26:58.325Z,15.18
2018-05-15T00:29:24.202Z,15.01
2018-05-15T00:31:50.089Z,15.02
2018-05-15T00:34:15.956Z,14.98
2018-05-15T00:36:41.786Z,15.07
2018-05-15T00:39:07.623Z,15.06
2018-05-15T00:41:33.438Z,14.97
2018-05-15T00:43:59.321Z,14.91
2018-05-15T00:46:25.171Z,14.86
2018-05-15T00:48:51.161Z,14.85
2018-05-15T00:51:17.032Z,14.86
2018-05-15T00:53:42.892Z,14.81
2018-05-15T00:56:08.749Z,14.83
2018-05-15T00:58:34.593Z,14.84
2018-05-15T01:01:00.476Z,14.90
2018-05-15T01:03:26.385Z,14.78
2018-05-15T01:05:52.250Z,14.74
2018-05-15T01:08:18.129Z,14.82
2018-05-15T01:10:43.987Z,14.76
2018-05-15T01:13:09.853Z,14.72
2018-05-15T01:15:35.700Z,14.55
2018-05-15T01:18:01.560Z,14.58
2018-05-15T01:20:27.417Z,14.66
2018-05-15T01:22:53.245Z,14.61
2018-05-15T01:25:19.109Z,14.57
2018-05-15T01:27:44.973Z,14.62
2018-05-15T01:30:10.869Z,14.58
2018-05-15T01:32:36.737Z,14.49
2018-05-15T01:35:02.772Z,14.56
2018-05-15T01:37:28.613Z,14.49
2018-05-15T01:39:54.474Z,14.47
2018-05-15T01:42:20.360Z,14.52
2018-05-15T01:44:46.217Z,14.56
2018-05-15T01:47:12.101Z,14.47
2018-05-15T01:49:37.971Z,14.45
2018-05-15T01:52:03.863Z,14.46
2018-05-15T01:54:29.746Z,14.45
2018-05-15T01:56:55.601Z,14.45
2018-05-15T01:59:21.436Z,14.59
2018-05-15T02:01:47.319Z,14.54
2018-05-15T02:04:13.173Z,14.49
2018-05-15T02:06:39.034Z,14.34
2018-05-15T02:09:04.930Z,14.32
2018-05-15T02:11:30.801Z,14.43
2018-05-15T02:13:56.652Z,14.28
2018-05-15T02:16:22.499Z,14.23
2018-05-15T02:18:48.326Z,14.21
2018-05-15T02:21:14.190Z,14.24
2018-05-15T02:23:40.084Z,14.33
2018-05-15T02:26:05.930Z,14.22
2018-05-15T02:28:31.772Z,14.33
2018-05-15T02:30:57.646Z,14.25
2018-05-15T02:33:23.494Z,14.39
2018-05-15T02:35:49.360Z,14.38
2018-05-15T02:38:15.190Z,14.28
2018-05-15T02:40:41.076Z,14.33
2018-05-15T02:43:06.925Z,14.27
2018-05-15T02:45:32.817Z,14.31
2018-05-15T02:47:58.698Z,14.23
2018-05-15T02:50:24.544Z,14.29
2018-05-15T02:52:50.368Z,14.15
2018-05-15T02:55:16.242Z,14.23
2018-05-15T02:57:42.105Z,14.28
2018-05-15T03:00:07.995Z,14.23
2018-05-15T03:02:33.838Z,14.14
2018-05-15T03:04:59.723Z,14.05
2018-05-15T03:07:25.556Z,14.05
2018-05-15T03:09:51.428Z,14.00
2018-05-15T03:12:17.285Z,14.02
2018-05-15T03:14:43.141Z,14.04
2018-05-15T03:17:08.977Z,14.03
2018-05-15T03:19:34.828Z,14.03
2018-05-15T03:22:00.672Z,13.99
2018-05-15T03:24:26.501Z,13.93
2018-05-15T03:26:52.385Z,14.10
2018-05-15T03:29:18.204Z,14.00
2018-05-15T03:31:44.090Z,13.72
2018-05-15T03:34:09.938Z,13.86
2018-05-15T03:36:35.802Z,13.78
2018-05-15T03:39:01.657Z,13.74
2018-05-15T03:41:27.559Z,13.87
2018-05-15T03:43:53.434Z,13.71
2018-05-15T03:46:19.296Z,13.67
2018-05-15T03:48:45.191Z,13.48
2018-05-15T03:51:11.065Z,13.51
2018-05-15T03:53:36.914Z,13.57
2018-05-15T03:56:02.768Z,13.75
2018-05-15T03:58:28.624Z,13.78
2018-05-15T04:01:06.881Z,13.49
2018-05-15T04:03:45.121Z,13.70
2018-05-15T04:06:23.265Z,13.82
2018-05-15T04:08:49.133Z,13.83
2018-05-15T04:11:15.013Z,13.99
2018-05-15T04:13:42.746Z,13.65
2018-05-15T04:16:08.803Z,13.74
2018-05-15T04:18:34.681Z,13.81
2018-05-15T04:21:00.548Z,13.72
2018-05-15T04:23:26.440Z,13.72
2018-05-15T04:25:52.303Z,13.68
2018-05-15T04:28:18.316Z,13.80
2018-05-15T04:30:44.078Z,13.94
2018-05-15T04:33:09.948Z,14.26
2018-05-15T04:35:35.797Z,14.07
2018-05-15T04:38:01.638Z,14.31
2018-05-15T04:40:27.489Z,14.49
2018-05-15T04:42:53.363Z,14.65
2018-05-15T04:45:19.233Z,14.75
2018-05-15T04:47:45.066Z,14.36
2018-05-15T04:50:10.913Z,14.33
2018-05-15T04:52:36.770Z,14.54
2018-05-15T04:55:02.690Z,14.39
2018-05-15T04:57:28.518Z,14.43
2018-05-15T04:59:54.364Z,14.64
2018-05-15T05:02:20.212Z,14.93
2018-05-15T05:04:46.091Z,14.91
2018-05-15T05:07:11.953Z,14.99
2018-05-15T05:09:37.812Z,14.93
2018-05-15T05:12:03.681Z,14.90
2018-05-15T05:14:29.568Z,15.06
2018-05-15T05:16:55.395Z,15.13
2018-05-15T05:19:21.280Z,14.92
2018-05-15T05:21:47.118Z,15.07
2018-05-15T05:24:12.982Z,14.96
2018-05-15T05:26:38.833Z,14.86
2018-05-15T05:29:04.706Z,15.15
2018-05-15T05:31:30.599Z,15.27
2018-05-15T05:33:56.433Z,15.47
2018-05-15T05:36:22.320Z,15.81
2018-05-15T05:38:48.180Z,15.76
2018-05-15T05:41:14.037Z,15.85
2018-05-15T05:43:39.876Z,16.14
2018-05-15T05:46:05.716Z,16.15
2018-05-15T05:48:31.614Z,16.11
2018-05-15T05:50:57.477Z,16.52
2018-05-15T05:53:23.359Z,16.82
2018-05-15T05:55:49.215Z,16.61
2018-05-15T05:58:15.116Z,16.64
2018-05-15T06:00:40.967Z,17.09
2018-05-15T06:03:06.828Z,17.19
2018-05-15T06:05:32.686Z,17.17
2018-05-15T06:07:58.547Z,16.56
2018-05-15T06:10:24.420Z,16.82
2018-05-15T06:12:50.276Z,17.36
2018-05-15T06:15:16.163Z,17.07
2018-05-15T06:17:42.005Z,16.92
2018-05-15T06:20:07.919Z,17.28
2018-05-15T06:22:33.775Z,17.42
2018-05-15T06:24:59.708Z,17.70
2018-05-15T06:27:25.560Z,17.19
2018-05-15T06:29:51.408Z,17.17
2018-05-15T06:32:17.285Z,16.98
2018-05-15T06:34:43.211Z,17.25
2018-05-15T06:37:09.064Z,16.98
2018-05-15T06:39:34.916Z,17.44
2018-05-15T06:42:00.776Z,17.34
2018-05-15T06:44:26.622Z,17.41
2018-05-15T06:46:52.475Z,17.77
2018-05-15T06:49:18.317Z,17.79
2018-05-15T06:51:44.165Z,17.74
2018-05-15T06:54:10.079Z,17.99
2018-05-15T06:56:35.956Z,17.76
2018-05-15T06:59:01.815Z,18.28
2018-05-15T07:01:27.693Z,18.29
2018-05-15T07:03:53.545Z,18.04
2018-05-15T07:06:19.405Z,17.97
2018-05-15T07:08:45.243Z,18.34
2018-05-15T07:11:11.134Z,18.11
2018-05-15T07:13:37.006Z,18.29
2018-05-15T07:16:02.867Z,18.31
2018-05-15T07:18:28.763Z,18.75
2018-05-15T07:20:54.635Z,19.22
2018-05-15T07:23:20.502Z,18.96
2018-05-15T07:25:46.361Z,18.87
2018-05-15T07:28:12.236Z,19.36
2018-05-15T07:30:38.128Z,19.45
2018-05-15T07:33:04.093Z,19.56
2018-05-15T07:35:29.840Z,19.58
2018-05-15T07:37:55.719Z,19.52
2018-05-15T07:40:21.664Z,19.20
2018-05-15T07:42:47.468Z,19.55
2018-05-15T07:45:13.344Z,19.18
2018-05-15T07:47:39.181Z,18.41
2018-05-15T07:50:05.209Z,18.74
2018-05-15T07:52:31.072Z,18.88
2018-05-15T07:54:56.948Z,18.65
2018-05-15T07:57:22.775Z,18.23
2018-05-15T07:59:48.601Z,18.41
2018-05-15T08:02:14.481Z,18.51
2018-05-15T08:04:40.360Z,18.94
2018-05-15T08:07:06.197Z,18.78
2018-05-15T08:09:32.052Z,19.23
2018-05-15T08:11:57.904Z,19.14
2018-05-15T08:14:23.731Z,19.10
2018-05-15T08:16:49.564Z,18.87
2018-05-15T08:19:15.508Z,19.13
2018-05-15T08:21:41.360Z,19.65
2018-05-15T08:24:07.227Z,20.42
2018-05-15T08:26:33.064Z,19.92
2018-05-15T08:28:58.918Z,18.73
2018-05-15T08:31:24.749Z,18.51
2018-05-15T08:33:50.642Z,18.92
2018-05-15T08:36:16.486Z,18.64
2018-05-15T08:38:42.336Z,19.07
2018-05-15T08:41:08.181Z,19.44
2018-05-15T08:43:34.016Z,19.90
2018-05-15T08:45:59.868Z,20.12
2018-05-15T08:48:25.719Z,19.68
2018-05-15T08:50:51.592Z,20.01
2018-05-15T08:53:17.461Z,19.11
2018-05-15T08:55:43.344Z,19.71
2018-05-15T08:58:09.208Z,20.28
2018-05-15T09:00:35.049Z,20.34
2018-05-15T09:03:00.902Z,20.35
2018-05-15T09:05:26.787Z,19.79
2018-05-15T09:07:52.625Z,19.76
2018-05-15T09:10:18.482Z,19.32
2018-05-15T09:12:44.344Z,18.89
2018-05-15T09:15:10.201Z,19.64
2018-05-15T09:17:36.040Z,20.10
2018-05-15T09:20:02.061Z,19.44
2018-05-15T09:22:27.919Z,20.12
2018-05-15T09:24:53.728Z,20.31
2018-05-15T09:27:19.613Z,20.06
2018-05-15T09:29:45.449Z,19.44
2018-05-15T09:32:18.208Z,19.61
2018-05-15T09:34:44.079Z,19.77
2018-05-15T09:37:09.958Z,19.27
2018-05-15T09:39:35.829Z,19.59
2018-05-15T09:42:01.698Z,19.06
2018-05-15T09:44:27.557Z,18.85
2018-05-15T09:46:53.481Z,19.08
2018-05-15T09:49:19.259Z,19.39
2018-05-15T09:51:45.100Z,19.36
2018-05-15T09:54:10.941Z,19.31
2018-05-15T09:56:36.784Z,18.67
2018-05-15T09:59:02.641Z,19.22
2018-05-15T10:01:28.468Z,19.59
2018-05-15T10:03:54.324Z,20.04
2018-05-15T10:06:20.156Z,19.96
2018-05-15T10:08:45.993Z,20.13
2018-05-15T10:11:11.845Z,20.71
2018-05-15T10:13:37.701Z,21.03
2018-05-15T10:16:03.558Z,20.64
2018-05-15T10:18:29.401Z,20.92
2018-05-15T10:20:55.275Z,20.95
2018-05-15T10:23:21.113Z,21.23
2018-05-15T10:25:46.999Z,21.20
2018-05-15T10:28:12.853Z,21.17
2018-05-15T10:30:38.760Z,21.09
2018-05-15T10:33:04.655Z,21.65
2018-05-15T10:35:30.532Z,21.44
2018-05-15T10:37:56.375Z,22.14
2018-05-15T10:40:22.200Z,21.53
2018-05-15T10:42:48.064Z,22.23
2018-05-15T10:45:13.888Z,22.26
2018-05-15T10:47:39.735Z,22.02
2018-05-15T10:50:05.596Z,21.96
2018-05-15T10:52:31.456Z,22.19
2018-05-15T10:54:57.333Z,21.57
2018-05-15T10:57:23.195Z,21.43
2018-05-15T10:59:49.025Z,22.39
2018-05-15T11:02:14.886Z,22.51
2018-05-15T11:04:40.717Z,22.07
2018-05-15T11:07:06.582Z,22.43
2018-05-15T11:09:32.449Z,22.28
2018-05-15T11:11:58.301Z,22.76
2018-05-15T11:14:24.157Z,23.34
2018-05-15T11:16:50.005Z,23.46
2018-05-15T11:19:28.281Z,23.40
2018-05-15T11:22:06.295Z,22.92
2018-05-15T11:24:44.426Z,21.31
2018-05-15T11:27:10.280Z,21.12
2018-05-15T11:29:36.133Z,19.87
2018-05-15T11:32:01.996Z,19.78
2018-05-15T11:34:27.880Z,19.63
2018-05-15T11:36:53.726Z,19.56
2018-05-15T11:39:19.613Z,19.03
2018-05-15T11:41:45.470Z,18.82
2018-05-15T11:44:11.316Z,18.97
2018-05-15T11:46:37.167Z,19.17
2018-05-15T11:49:03.944Z,18.87
2018-05-15T11:51:29.849Z,18.79
2018-05-15T11:53:54.796Z,18.94
2018-05-15T11:56:20.667Z,19.05
2018-05-15T11:58:46.484Z,19.25
2018-05-15T12:01:12.378Z,19.49
2018-05-15T12:03:38.243Z,19.19
2018-05-15T12:06:04.128Z,19.61
2018-05-15T12:08:29.981Z,19.95
2018-05-15T12:10:55.868Z,19.51
2018-05-15T12:13:21.685Z,18.74
2018-05-15T12:15:47.533Z,18.92
2018-05-15T12:18:13.381Z,18.96
2018-05-15T12:20:39.217Z,18.87
2018-05-15T12:23:05.081Z,18.69
2018-05-15T12:25:30.933Z,19.83
2018-05-15T12:27:56.787Z,20.78
2018-05-15T12:30:22.925Z,22.00
2018-05-15T12:32:48.794Z,22.53
2018-05-15T12:35:14.664Z,22.68
2018-05-15T12:37:40.537Z,21.67
2018-05-15T12:40:06.394Z,20.75
2018-05-15T12:42:32.257Z,20.34
2018-05-15T12:44:58.112Z,19.73
2018-05-15T12:47:23.964Z,19.97
2018-05-15T12:49:49.828Z,20.14
2018-05-15T12:52:15.706Z,20.07
2018-05-15T12:54:41.580Z,20.52
2018-05-15T12:57:07.444Z,21.62
2018-05-15T12:59:33.314Z,21.90
2018-05-15T13:01:59.163Z,21.61
2018-05-15T13:04:25.027Z,21.63
2018-05-15T13:06:50.889Z,21.89
2018-05-15T13:09:16.768Z,22.34
2018-05-15T13:11:42.605Z,20.67
2018-05-15T13:14:08.468Z,20.25
2018-05-15T13:16:34.305Z,19.97
2018-05-15T13:19:00.200Z,19.67
2018-05-15T13:21:26.065Z,19.14
2018-05-15T13:23:51.941Z,18.92
2018-05-15T13:26:17.799Z,18.68
2018-05-15T13:28:43.656Z,18.66
2018-05-15T13:31:09.557Z,18.11
2018-05-15T13:33:35.411Z,18.11
2018-05-15T13:36:01.269Z,17.65
2018-05-15T13:38:27.107Z,17.69
2018-05-15T13:40:52.967Z,17.89
2018-05-15T13:43:18.825Z,18.04
2018-05-15T13:45:44.678Z,18.46
2018-05-15T13:48:10.584Z,18.08
2018-05-15T13:50:36.531Z,18.53
2018-05-15T13:53:02.362Z,18.39
2018-05-15T13:55:28.262Z,18.33
2018-05-15T13:57:54.175Z,18.49
2018-05-15T14:00:20.036Z,18.53
2018-05-15T14:02:45.952Z,18.33
2018-05-15T14:05:11.832Z,18.29
2018-05-15T14:07:37.702Z,18.48
2018-05-15T14:10:03.756Z,18.72
2018-05-15T14:12:29.760Z,18.47
2018-05-15T14:14:55.515Z,18.77
2018-05-15T14:17:21.404Z,18.70
2018-05-15T14:19:47.266Z,19.27
2018-05-15T14:22:13.149Z,18.97
2018-05-15T14:24:39.041Z,18.83
2018-05-15T14:27:04.906Z,19.14
2018-05-15T14:29:30.784Z,18.98
2018-05-15T14:31:56.685Z,19.11
2018-05-15T14:34:22.614Z,19.26
2018-05-15T14:36:48.469Z,19.39
2018-05-15T14:39:14.356Z,19.58
2018-05-15T14:44:44.083Z,18.34
2018-05-15T14:47:09.980Z,19.02
2018-05-15T14:49:35.872Z,18.43
2018-05-15T14:52:01.718Z,17.76
2018-05-15T14:54:27.588Z,18.51
2018-05-15T14:56:53.492Z,18.53
2018-05-15T14:59:19.373Z,18.44
2018-05-15T15:01:52.181Z,17.84
2018-05-15T15:04:18.031Z,17.87
2018-05-15T15:06:43.885Z,17.47
2018-05-15T15:09:09.768Z,17.33
2018-05-15T15:11:35.657Z,17.56
2018-05-15T15:14:01.464Z,17.04
2018-05-15T15:16:27.312Z,17.15
2018-05-15T15:18:53.144Z,17.11
2018-05-15T15:21:19.022Z,17.35
2018-05-15T15:23:44.939Z,18.11
2018-05-15T15:26:10.783Z,17.68
2018-05-15T15:28:36.651Z,17.73
2018-05-15T15:31:02.521Z,17.75
2018-05-15T15:33:28.369Z,18.15
2018-05-15T15:35:54.242Z,18.78
2018-05-15T15:38:20.088Z,19.06
2018-05-15T15:40:46.024Z,19.75
2018-05-15T15:43:11.872Z,19.58
2018-05-15T15:45:37.704Z,18.50
2018-05-15T15:48:03.622Z,19.17
2018-05-15T15:50:29.458Z,19.74
2018-05-15T15:52:55.324Z,19.82
2018-05-15T15:55:21.174Z,20.33
2018-05-15T15:57:47.010Z,20.18
2018-05-15T16:00:12.849Z,19.71
2018-05-15T16:02:38.717Z,19.94
2018-05-15T16:05:04.634Z,19.62
2018-05-15T16:07:30.440Z,19.69
2018-05-15T16:09:56.510Z,19.32
2018-05-15T16:12:22.296Z,19.29
2018-05-15T16:14:48.212Z,19.16
2018-05-15T16:17:14.093Z,18.80
2018-05-15T16:19:39.923Z,18.92
2018-05-15T16:22:05.823Z,18.70
2018-05-15T16:24:31.664Z,18.45
2018-05-15T16:26:57.517Z,18.50
2018-05-15T16:29:23.383Z,18.36
2018-05-15T16:31:49.263Z,18.38
2018-05-15T16:34:15.149Z,18.35
2018-05-15T16:36:40.992Z,18.52
2018-05-15T16:39:06.879Z,18.06
2018-05-15T16:41:32.740Z,17.95
2018-05-15T16:43:58.598Z,18.11
2018-05-15T16:46:24.445Z,18.34
2018-05-15T16:48:50.300Z,18.32
2018-05-15T16:51:16.159Z,17.87
2018-05-15T16:53:42.015Z,17.81
2018-05-15T16:56:07.882Z,17.65
2018-05-15T16:58:33.759Z,17.66
2018-05-15T17:00:59.621Z,17.56
2018-05-15T17:03:25.502Z,17.53
2018-05-15T17:05:51.387Z,17.46
2018-05-15T17:08:17.399Z,17.33
2018-05-15T17:10:43.177Z,17.27
2018-05-15T17:13:09.074Z,17.32
2018-05-15T17:15:34.891Z,17.13
2018-05-15T17:18:00.769Z,16.98
2018-05-15T17:20:26.651Z,16.96
2018-05-15T17:22:52.512Z,16.82
2018-05-15T17:25:18.343Z,17.03
2018-05-15T17:27:44.197Z,16.95
2018-05-15T17:30:10.028Z,16.54
2018-05-15T17:32:35.868Z,16.46
2018-05-15T17:35:01.722Z,16.24
2018-05-15T17:37:27.616Z,16.21
2018-05-15T17:39:53.487Z,16.37
2018-05-15T17:42:19.349Z,16.41
2018-05-15T17:44:45.300Z,16.32
2018-05-15T17:47:11.147Z,16.41
2018-05-15T17:49:37.042Z,16.33
2018-05-15T17:52:02.922Z,16.20
2018-05-15T17:54:28.838Z,16.53
2018-05-15T17:56:54.695Z,16.26
2018-05-15T17:59:20.625Z,16.12
2018-05-15T18:01:46.467Z,16.03
2018-05-15T18:04:12.389Z,15.89
2018-05-15T18:06:38.246Z,16.42
2018-05-15T18:09:04.133Z,16.03
2018-05-15T18:11:29.993Z,15.74
2018-05-15T18:13:55.838Z,15.14
2018-05-15T18:16:21.724Z,15.29
2018-05-15T18:18:47.621Z,15.45
2018-05-15T18:21:13.512Z,15.14
2018-05-15T18:23:39.386Z,15.24
2018-05-15T18:26:05.324Z,14.74
2018-05-15T18:28:31.182Z,14.84
2018-05-15T18:30:57.045Z,14.66
2018-05-15T18:33:22.911Z,14.35
2018-05-15T18:35:48.792Z,14.37
2018-05-15T18:38:14.668Z,14.31
2018-05-15T18:40:40.544Z,14.27
2018-05-15T18:43:06.402Z,13.90
2018-05-15T18:45:32.293Z,13.87
2018-05-15T18:47:58.184Z,13.86
2018-05-15T18:50:24.143Z,13.67
2018-05-15T18:52:50.069Z,13.65
2018-05-15T18:55:15.993Z,13.43
2018-05-15T18:57:41.908Z,13.47
2018-05-15T19:00:07.755Z,13.52
2018-05-15T19:02:33.636Z,13.40
2018-05-15T19:04:59.492Z,13.33
2018-05-15T19:07:25.345Z,12.92
2018-05-15T19:09:51.210Z,12.89
2018-05-15T19:12:17.100Z,12.83
2018-05-15T19:14:42.953Z,12.57
2018-05-15T19:17:08.833Z,12.48
2018-05-15T19:19:34.762Z,12.58
2018-05-15T19:22:00.541Z,12.44
2018-05-15T19:24:26.437Z,12.25
2018-05-15T19:26:52.381Z,12.32
2018-05-15T19:29:18.181Z,12.62
2018-05-15T19:31:44.039Z,12.54
2018-05-15T19:34:15.845Z,12.51
2018-05-15T19:36:47.696Z,12.30
2018-05-15T19:39:13.542Z,12.43
2018-05-15T19:41:39.421Z,12.54
2018-05-15T19:44:05.300Z,12.22
2018-05-15T19:46:31.153Z,12.39
2018-05-15T19:48:57.021Z,12.17
2018-05-15T19:51:22.890Z,12.11
2018-05-15T19:53:48.748Z,12.24
2018-05-15T19:56:14.715Z,12.38
2018-05-15T19:58:40.591Z,12.24
2018-05-15T20:01:06.496Z,12.40
2018-05-15T20:03:32.447Z,12.29
2018-05-15T20:05:58.336Z,12.01
2018-05-15T20:08:24.221Z,12.03
2018-05-15T20:10:50.091Z,12.19
2018-05-15T20:13:16.037Z,12.09
2018-05-15T20:15:41.924Z,11.91
2018-05-15T20:18:07.821Z,11.64
2018-05-15T20:20:33.657Z,11.68
2018-05-15T20:22:59.549Z,11.74
2018-05-15T20:25:25.388Z,11.84
2018-05-15T20:27:51.274Z,11.95
2018-05-15T20:30:17.105Z,11.76
2018-05-15T20:32:42.948Z,11.74
2018-05-15T20:35:08.824Z,11.86
2018-05-15T20:37:34.625Z,11.94
2018-05-15T20:40:00.601Z,11.94
2018-05-15T20:42:26.518Z,11.84
2018-05-15T20:44:52.373Z,11.84
2018-05-15T20:47:18.235Z,11.85
2018-05-15T20:49:44.113Z,12.02
2018-05-15T20:52:10.013Z,11.88
2018-05-15T20:54:35.905Z,11.83
2018-05-15T20:57:01.764Z,11.90
2018-05-15T20:59:27.617Z,12.03
2018-05-15T21:01:53.626Z,12.22
2018-05-15T21:04:19.454Z,12.16
2018-05-15T21:06:45.297Z,12.14
2018-05-15T21:09:11.141Z,12.23
2018-05-15T21:11:37.029Z,12.20
2018-05-15T21:14:02.884Z,12.29
2018-05-15T21:16:28.760Z,12.19
2018-05-15T21:18:54.628Z,12.28
2018-05-15T21:21:20.496Z,12.24
2018-05-15T21:23:46.337Z,12.36
2018-05-15T21:26:12.189Z,12.06
2018-05-15T21:28:38.092Z,12.17
2018-05-15T21:31:03.965Z,12.13
2018-05-15T21:33:29.813Z,12.02
2018-05-15T21:35:55.689Z,12.23
2018-05-15T21:38:21.557Z,12.24
2018-05-15T21:40:47.576Z,11.93
2018-05-15T21:43:13.470Z,11.79
2018-05-15T21:45:39.361Z,11.84
2018-05-15T21:48:05.197Z,11.87
2018-05-15T21:50:31.069Z,11.84
2018-05-15T21:52:56.937Z,11.81
2018-05-15T21:55:22.840Z,11.81
2018-05-15T21:57:48.716Z,11.85
2018-05-15T22:00:14.557Z,11.70
2018-05-15T22:02:40.407Z,11.80
2018-05-15T22:05:06.284Z,11.70
2018-05-15T22:07:32.144Z,11.51
2018-05-15T22:09:58.004Z,11.59
2018-05-15T22:12:36.176Z,11.56
2018-05-15T22:15:14.293Z,11.69
2018-05-15T22:17:52.466Z,11.89
2018-05-15T22:20:30.643Z,11.77
2018-05-15T22:22:56.297Z,11.88
2018-05-15T22:25:22.149Z,12.00
2018-05-15T22:27:47.990Z,12.12
2018-05-15T22:30:13.817Z,12.03
2018-05-15T22:32:39.673Z,12.06
2018-05-15T22:35:05.513Z,11.92
2018-05-15T22:37:31.354Z,12.11
2018-05-15T22:39:57.308Z,12.11
2018-05-15T22:42:23.158Z,12.03
2018-05-15T22:44:48.977Z,12.10
2018-05-15T22:47:14.864Z,12.08
2018-05-15T22:49:40.724Z,11.89
2018-05-15T22:52:06.596Z,11.76
2018-05-15T22:54:32.454Z,11.64
2018-05-15T22:56:58.320Z,11.70
2018-05-15T22:59:24.197Z,11.70
2018-05-15T23:01:50.083Z,11.60
2018-05-15T23:04:15.937Z,11.61
2018-05-15T23:06:41.805Z,11.69
2018-05-15T23:09:07.637Z,11.67
2018-05-15T23:11:33.508Z,11.53
2018-05-15T23:13:59.369Z,11.72
2018-05-15T23:16:25.304Z,11.66
2018-05-15T23:18:51.192Z,11.59
2018-05-15T23:21:17.057Z,11.59
2018-05-15T23:23:42.946Z,11.79
2018-05-15T23:26:08.808Z,11.78
2018-05-15T23:28:34.662Z,11.60
2018-05-15T23:31:00.488Z,11.72
2018-05-15T23:33:26.336Z,11.80
2018-05-15T23:35:52.220Z,11.92
2018-05-15T23:38:18.118Z,11.76
2018-05-15T23:40:43.994Z,11.86
2018-05-15T23:43:09.841Z,11.82
2018-05-15T23:45:35.688Z,11.74
2018-05-15T23:48:01.514Z,11.84
2018-05-15T23:50:27.383Z,11.93
2018-05-15T23:52:53.260Z,12.01
2018-05-15T23:55:19.124Z,12.17
2018-05-15T23:57:44.958Z,11.99
